Maldives Meteorological Service

TAFS

Station TAF
VRMM
VRMM 210500Z 2106/2212 26010KT 9999 FEW018TCU TEMPO 2109/2115 6000 –TSRA SCT016 FEW017CB=
VRMH
VRMH 210500Z 2106/2206 27013KT 9999 SCT017TCU TEMPO 2106/2112 3000 TSRA SCT015 FEW016CB BKN100=
VRMK
VRMK 210500Z 2106/2206 25007KT 9999 FEW018 TEMPO 2109/2115 FEW018CB=
VRMT
VRMT 210500Z 2106/2206 25007KT 9999 FEW018 TEMPO 2106/2112 FEW018CB=
VRMG
VRMG 210500Z 2106/2212 24007KT 9999 FEW018 TEMPO 2109/2115 FEW018CB=